sensor_id;sensor_type;location;lat;lon;timestamp;pressure;altitude;pressure_sealevel;temperature;humidity
38912;BME280;28444;48.056;14.408;2022-09-27T00:01:11;96243.94;;;11.97;100.00
38912;BME280;28444;48.056;14.408;2022-09-27T00:03:39;96237.63;;;11.94;100.00
38912;BME280;28444;48.056;14.408;2022-09-27T00:06:18;96234.28;;;11.96;100.00
38912;BME280;28444;48.056;14.408;2022-09-27T00:08:46;96234.78;;;11.92;100.00
38912;BME280;28444;48.056;14.408;2022-09-27T00:11:34;96225.16;;;11.91;100.00
38912;BME280;28444;48.056;14.408;2022-09-27T00:14:01;96213.22;;;11.98;100.00
38912;BME280;28444;48.056;14.408;2022-09-27T00:16:30;96207.31;;;12.04;100.00
38912;BME280;28444;48.056;14.408;2022-09-27T00:18:58;96199.09;;;12.04;100.00
38912;BME280;28444;48.056;14.408;2022-09-27T00:21:25;96190.06;;;12.01;100.00
38912;BME280;28444;48.056;14.408;2022-09-27T00:23:52;96184.38;;;11.97;100.00
38912;BME280;28444;48.056;14.408;2022-09-27T00:26:19;96189.75;;;11.95;100.00
38912;BME280;28444;48.056;14.408;2022-09-27T00:28:46;96188.22;;;11.92;100.00
38912;BME280;28444;48.056;14.408;2022-09-27T00:31:26;96191.78;;;11.95;100.00
38912;BME280;28444;48.056;14.408;2022-09-27T00:33:57;96192.72;;;11.99;100.00
38912;BME280;28444;48.056;14.408;2022-09-27T00:36:25;96184.00;;;12.03;100.00
38912;BME280;28444;48.056;14.408;2022-09-27T00:38:53;96179.00;;;11.99;100.00
38912;BME280;28444;48.056;14.408;2022-09-27T00:41:24;96175.78;;;12.03;100.00
38912;BME280;28444;48.056;14.408;2022-09-27T00:43:53;96181.47;;;12.07;100.00
38912;BME280;28444;48.056;14.408;2022-09-27T00:46:28;96178.72;;;12.07;100.00
38912;BME280;28444;48.056;14.408;2022-09-27T00:49:14;96180.97;;;12.11;100.00
38912;BME280;28444;48.056;14.408;2022-09-27T00:51:44;96178.84;;;12.09;99.82
38912;BME280;28444;48.056;14.408;2022-09-27T00:54:14;96177.50;;;12.10;100.00
38912;BME280;28444;48.056;14.408;2022-09-27T00:56:43;96172.94;;;12.15;100.00
38912;BME280;28444;48.056;14.408;2022-09-27T00:59:15;96173.66;;;12.15;99.80
38912;BME280;28444;48.056;14.408;2022-09-27T01:01:45;96165.16;;;12.09;99.97
38912;BME280;28444;48.056;14.408;2022-09-27T01:04:14;96166.66;;;12.12;100.00
38912;BME280;28444;48.056;14.408;2022-09-27T01:06:43;96161.47;;;12.04;100.00
38912;BME280;28444;48.056;14.408;2022-09-27T01:09:10;96163.50;;;12.04;100.00
38912;BME280;28444;48.056;14.408;2022-09-27T01:11:53;96161.56;;;12.07;99.98
38912;BME280;28444;48.056;14.408;2022-09-27T01:15:07;96157.50;;;12.08;99.12
38912;BME280;28444;48.056;14.408;2022-09-27T01:18:05;96144.53;;;12.08;98.43
38912;BME280;28444;48.056;14.408;2022-09-27T01:23:52;96142.78;;;12.01;98.27
38912;BME280;28444;48.056;14.408;2022-09-27T01:28:20;96138.63;;;12.00;98.28
38912;BME280;28444;48.056;14.408;2022-09-27T01:32:52;96131.91;;;11.89;98.07
38912;BME280;28444;48.056;14.408;2022-09-27T01:36:03;96117.16;;;11.82;98.63
38912;BME280;28444;48.056;14.408;2022-09-27T01:41:48;96117.28;;;11.85;98.32
38912;BME280;28444;48.056;14.408;2022-09-27T01:44:38;96116.44;;;11.82;97.99
38912;BME280;28444;48.056;14.408;2022-09-27T01:47:11;96105.38;;;11.80;97.94
38912;BME280;28444;48.056;14.408;2022-09-27T01:49:47;96106.69;;;11.79;98.00
38912;BME280;28444;48.056;14.408;2022-09-27T01:52:23;96097.16;;;11.80;97.75
38912;BME280;28444;48.056;14.408;2022-09-27T01:54:55;96090.88;;;11.77;97.80
38912;BME280;28444;48.056;14.408;2022-09-27T01:57:26;96093.72;;;11.79;97.56
38912;BME280;28444;48.056;14.408;2022-09-27T02:00:03;96092.41;;;11.80;97.37
38912;BME280;28444;48.056;14.408;2022-09-27T02:02:33;96093.13;;;11.81;97.48
38912;BME280;28444;48.056;14.408;2022-09-27T02:05:04;96088.34;;;11.81;97.63
38912;BME280;28444;48.056;14.408;2022-09-27T02:07:40;96085.59;;;11.81;97.17
38912;BME280;28444;48.056;14.408;2022-09-27T02:10:14;96071.22;;;11.81;97.47
38912;BME280;28444;48.056;14.408;2022-09-27T02:12:51;96065.97;;;11.85;97.12
38912;BME280;28444;48.056;14.408;2022-09-27T02:15:25;96060.00;;;11.89;97.41
38912;BME280;28444;48.056;14.408;2022-09-27T02:18:09;96048.31;;;11.88;96.58
38912;BME280;28444;48.056;14.408;2022-09-27T02:20:40;96046.38;;;11.91;96.62
38912;BME280;28444;48.056;14.408;2022-09-27T02:23:51;96039.75;;;11.82;97.41
38912;BME280;28444;48.056;14.408;2022-09-27T02:26:32;96040.88;;;11.77;98.40
38912;BME280;28444;48.056;14.408;2022-09-27T02:29:14;96042.38;;;11.66;97.77
38912;BME280;28444;48.056;14.408;2022-09-27T02:31:42;96031.31;;;11.64;98.65
38912;BME280;28444;48.056;14.408;2022-09-27T02:34:21;96029.28;;;11.65;98.55
38912;BME280;28444;48.056;14.408;2022-09-27T02:36:49;96017.03;;;11.66;97.49
38912;BME280;28444;48.056;14.408;2022-09-27T02:39:19;96019.38;;;11.71;97.04
38912;BME280;28444;48.056;14.408;2022-09-27T02:41:46;96011.84;;;11.72;96.58
38912;BME280;28444;48.056;14.408;2022-09-27T02:44:13;96010.56;;;11.73;97.08
38912;BME280;28444;48.056;14.408;2022-09-27T02:47:34;96013.28;;;11.73;97.30
38912;BME280;28444;48.056;14.408;2022-09-27T02:56:26;96000.91;;;11.72;97.48
38912;BME280;28444;48.056;14.408;2022-09-27T02:59:24;96015.09;;;11.68;98.62
38912;BME280;28444;48.056;14.408;2022-09-27T03:02:13;96002.84;;;11.69;99.59
38912;BME280;28444;48.056;14.408;2022-09-27T03:04:48;96001.19;;;11.64;98.53
38912;BME280;28444;48.056;14.408;2022-09-27T03:07:20;95993.91;;;11.69;99.28
38912;BME280;28444;48.056;14.408;2022-09-27T03:09:52;96014.59;;;11.72;98.54
38912;BME280;28444;48.056;14.408;2022-09-27T03:12:19;96005.66;;;11.71;99.01
38912;BME280;28444;48.056;14.408;2022-09-27T03:15:00;96006.78;;;11.66;98.37
38912;BME280;28444;48.056;14.408;2022-09-27T03:17:26;96005.06;;;11.59;99.61
38912;BME280;28444;48.056;14.408;2022-09-27T03:19:55;96006.44;;;11.46;100.00
38912;BME280;28444;48.056;14.408;2022-09-27T03:22:21;96004.59;;;11.37;100.00
38912;BME280;28444;48.056;14.408;2022-09-27T03:24:48;95996.91;;;11.33;100.00
38912;BME280;28444;48.056;14.408;2022-09-27T03:27:15;95996.78;;;11.31;100.00
38912;BME280;28444;48.056;14.408;2022-09-27T03:29:41;95987.97;;;11.33;100.00
38912;BME280;28444;48.056;14.408;2022-09-27T03:32:08;95985.25;;;11.33;100.00
38912;BME280;28444;48.056;14.408;2022-09-27T03:34:35;95972.69;;;11.42;99.81
38912;BME280;28444;48.056;14.408;2022-09-27T03:37:02;95970.78;;;11.44;99.54
38912;BME280;28444;48.056;14.408;2022-09-27T03:39:29;95972.19;;;11.45;99.63
38912;BME280;28444;48.056;14.408;2022-09-27T03:41:56;95967.53;;;11.48;100.00
38912;BME280;28444;48.056;14.408;2022-09-27T03:44:22;95963.34;;;11.47;100.00
38912;BME280;28444;48.056;14.408;2022-09-27T03:46:49;95951.59;;;11.44;100.00
38912;BME280;28444;48.056;14.408;2022-09-27T03:49:16;95950.09;;;11.41;100.00
38912;BME280;28444;48.056;14.408;2022-09-27T03:51:43;95946.53;;;11.39;100.00
38912;BME280;28444;48.056;14.408;2022-09-27T03:54:09;95947.84;;;11.38;100.00
38912;BME280;28444;48.056;14.408;2022-09-27T03:56:36;95943.69;;;11.37;100.00
38912;BME280;28444;48.056;14.408;2022-09-27T03:59:03;95929.28;;;11.36;100.00
38912;BME280;28444;48.056;14.408;2022-09-27T04:01:30;95923.72;;;11.34;100.00
38912;BME280;28444;48.056;14.408;2022-09-27T04:03:56;95919.06;;;11.37;100.00
38912;BME280;28444;48.056;14.408;2022-09-27T04:06:23;95910.63;;;11.32;100.00
38912;BME280;28444;48.056;14.408;2022-09-27T04:08:52;95908.50;;;11.31;100.00
38912;BME280;28444;48.056;14.408;2022-09-27T04:11:19;95910.84;;;11.37;100.00
38912;BME280;28444;48.056;14.408;2022-09-27T04:13:46;95905.47;;;11.39;100.00
38912;BME280;28444;48.056;14.408;2022-09-27T04:16:14;95911.56;;;11.37;100.00
38912;BME280;28444;48.056;14.408;2022-09-27T04:18:42;95917.75;;;11.38;100.00
38912;BME280;28444;48.056;14.408;2022-09-27T04:21:09;95917.75;;;11.38;100.00
38912;BME280;28444;48.056;14.408;2022-09-27T04:23:36;95919.66;;;11.35;100.00
38912;BME280;28444;48.056;14.408;2022-09-27T04:26:02;95914.09;;;11.33;100.00
38912;BME280;28444;48.056;14.408;2022-09-27T04:28:29;95913.28;;;11.30;100.00
38912;BME280;28444;48.056;14.408;2022-09-27T04:30:57;95914.81;;;11.33;100.00
38912;BME280;28444;48.056;14.408;2022-09-27T04:33:24;95921.47;;;11.30;100.00
38912;BME280;28444;48.056;14.408;2022-09-27T04:35:50;95920.78;;;11.30;100.00
38912;BME280;28444;48.056;14.408;2022-09-27T04:38:35;95908.31;;;11.27;100.00
38912;BME280;28444;48.056;14.408;2022-09-27T04:41:02;95908.91;;;11.25;100.00
38912;BME280;28444;48.056;14.408;2022-09-27T04:43:29;95916.00;;;11.30;100.00
38912;BME280;28444;48.056;14.408;2022-09-27T04:45:56;95918.84;;;11.32;100.00
38912;BME280;28444;48.056;14.408;2022-09-27T04:48:23;95919.56;;;11.33;100.00
38912;BME280;28444;48.056;14.408;2022-09-27T04:50:57;95920.06;;;11.29;100.00
38912;BME280;28444;48.056;14.408;2022-09-27T04:53:24;95921.38;;;11.28;100.00
38912;BME280;28444;48.056;14.408;2022-09-27T04:55:52;95926.75;;;11.26;99.55
38912;BME280;28444;48.056;14.408;2022-09-27T04:58:20;95929.28;;;11.22;100.00
38912;BME280;28444;48.056;14.408;2022-09-27T05:00:48;95926.44;;;11.20;100.00
38912;BME280;28444;48.056;14.408;2022-09-27T05:03:17;95928.84;;;11.14;100.00
38912;BME280;28444;48.056;14.408;2022-09-27T05:05:44;95926.00;;;11.12;100.00
38912;BME280;28444;48.056;14.408;2022-09-27T05:08:11;95924.69;;;11.13;100.00
38912;BME280;28444;48.056;14.408;2022-09-27T05:10:38;95920.75;;;11.16;100.00
38912;BME280;28444;48.056;14.408;2022-09-27T05:13:05;95915.28;;;11.16;100.00
38912;BME280;28444;48.056;14.408;2022-09-27T05:15:32;95918.59;;;11.15;100.00
38912;BME280;28444;48.056;14.408;2022-09-27T05:17:59;95915.28;;;11.16;100.00
38912;BME280;28444;48.056;14.408;2022-09-27T05:20:26;95920.75;;;11.16;100.00
38912;BME280;28444;48.056;14.408;2022-09-27T05:22:53;95914.78;;;11.20;100.00
38912;BME280;28444;48.056;14.408;2022-09-27T05:25:20;95927.84;;;11.21;100.00
38912;BME280;28444;48.056;14.408;2022-09-27T05:27:46;95926.94;;;11.17;100.00
38912;BME280;28444;48.056;14.408;2022-09-27T05:30:14;95922.78;;;11.16;100.00
38912;BME280;28444;48.056;14.408;2022-09-27T05:32:45;95933.22;;;11.19;100.00
38912;BME280;28444;48.056;14.408;2022-09-27T05:35:14;95940.50;;;11.15;100.00
38912;BME280;28444;48.056;14.408;2022-09-27T05:37:42;95936.97;;;11.12;100.00
38912;BME280;28444;48.056;14.408;2022-09-27T05:40:09;95941.09;;;11.13;100.00
38912;BME280;28444;48.056;14.408;2022-09-27T05:42:56;95946.69;;;11.15;100.00
38912;BME280;28444;48.056;14.408;2022-09-27T05:45:23;95963.81;;;11.16;100.00
38912;BME280;28444;48.056;14.408;2022-09-27T05:47:52;95979.72;;;11.19;100.00
38912;BME280;28444;48.056;14.408;2022-09-27T05:50:19;95990.47;;;11.15;100.00
38912;BME280;28444;48.056;14.408;2022-09-27T05:52:46;96001.69;;;11.07;100.00
38912;BME280;28444;48.056;14.408;2022-09-27T05:55:14;96018.13;;;10.96;100.00
38912;BME280;28444;48.056;14.408;2022-09-27T05:57:40;96022.72;;;10.79;100.00
38912;BME280;28444;48.056;14.408;2022-09-27T06:00:08;96028.97;;;10.68;100.00
38912;BME280;28444;48.056;14.408;2022-09-27T06:02:35;96037.75;;;10.67;100.00
38912;BME280;28444;48.056;14.408;2022-09-27T06:05:02;96036.81;;;10.62;100.00
38912;BME280;28444;48.056;14.408;2022-09-27T06:07:30;96050.25;;;10.58;100.00
38912;BME280;28444;48.056;14.408;2022-09-27T06:09:57;96050.75;;;10.54;100.00
38912;BME280;28444;48.056;14.408;2022-09-27T06:12:24;96054.88;;;10.55;100.00
38912;BME280;28444;48.056;14.408;2022-09-27T06:14:50;96064.03;;;10.60;100.00
38912;BME280;28444;48.056;14.408;2022-09-27T06:17:17;96069.38;;;10.58;100.00
38912;BME280;28444;48.056;14.408;2022-09-27T06:19:44;96073.75;;;10.63;100.00
38912;BME280;28444;48.056;14.408;2022-09-27T06:22:13;96071.16;;;10.65;100.00
38912;BME280;28444;48.056;14.408;2022-09-27T06:24:39;96074.72;;;10.68;100.00
38912;BME280;28444;48.056;14.408;2022-09-27T06:27:07;96065.69;;;10.65;100.00
38912;BME280;28444;48.056;14.408;2022-09-27T06:29:33;96064.97;;;10.65;100.00
38912;BME280;28444;48.056;14.408;2022-09-27T06:32:00;96057.34;;;10.63;100.00
38912;BME280;28444;48.056;14.408;2022-09-27T06:34:27;96065.31;;;10.71;100.00
38912;BME280;28444;48.056;14.408;2022-09-27T06:36:54;96066.00;;;10.83;100.00
38912;BME280;28444;48.056;14.408;2022-09-27T06:39:22;96068.25;;;10.87;100.00
38912;BME280;28444;48.056;14.408;2022-09-27T06:41:52;96065.81;;;10.93;100.00
38912;BME280;28444;48.056;14.408;2022-09-27T06:44:22;96072.34;;;10.99;100.00
38912;BME280;28444;48.056;14.408;2022-09-27T06:46:51;96075.22;;;11.01;100.00
38912;BME280;28444;48.056;14.408;2022-09-27T06:49:18;96079.09;;;11.10;100.00
38912;BME280;28444;48.056;14.408;2022-09-27T06:51:45;96079.31;;;11.14;100.00
38912;BME280;28444;48.056;14.408;2022-09-27T06:54:12;96079.34;;;11.02;100.00
38912;BME280;28444;48.056;14.408;2022-09-27T06:56:39;96072.13;;;10.95;100.00
38912;BME280;28444;48.056;14.408;2022-09-27T06:59:05;96067.28;;;10.94;100.00
38912;BME280;28444;48.056;14.408;2022-09-27T07:01:50;96069.25;;;11.05;100.00
38912;BME280;28444;48.056;14.408;2022-09-27T07:04:18;96073.34;;;11.18;100.00
38912;BME280;28444;48.056;14.408;2022-09-27T07:06:45;96066.88;;;11.25;100.00
38912;BME280;28444;48.056;14.408;2022-09-27T07:09:11;96051.19;;;11.25;100.00
38912;BME280;28444;48.056;14.408;2022-09-27T07:11:38;96046.59;;;11.16;100.00
38912;BME280;28444;48.056;14.408;2022-09-27T07:14:05;96039.31;;;11.21;100.00
38912;BME280;28444;48.056;14.408;2022-09-27T07:16:33;96042.97;;;11.25;100.00
38912;BME280;28444;48.056;14.408;2022-09-27T07:19:00;96045.13;;;11.27;100.00
38912;BME280;28444;48.056;14.408;2022-09-27T07:21:27;96048.56;;;11.27;100.00
38912;BME280;28444;48.056;14.408;2022-09-27T07:23:54;96054.84;;;11.30;100.00
38912;BME280;28444;48.056;14.408;2022-09-27T07:26:21;96056.34;;;11.19;100.00
38912;BME280;28444;48.056;14.408;2022-09-27T07:28:48;96059.66;;;11.18;100.00
38912;BME280;28444;48.056;14.408;2022-09-27T07:31:15;96060.97;;;11.17;100.00
38912;BME280;28444;48.056;14.408;2022-09-27T07:33:42;96053.97;;;11.14;100.00
38912;BME280;28444;48.056;14.408;2022-09-27T07:36:10;96051.84;;;11.12;100.00
38912;BME280;28444;48.056;14.408;2022-09-27T07:38:37;96045.50;;;11.21;100.00
38912;BME280;28444;48.056;14.408;2022-09-27T07:41:05;96052.72;;;11.28;100.00
38912;BME280;28444;48.056;14.408;2022-09-27T07:43:32;96049.97;;;11.28;100.00
38912;BME280;28444;48.056;14.408;2022-09-27T07:45:59;96053.91;;;11.25;100.00
38912;BME280;28444;48.056;14.408;2022-09-27T07:48:26;96051.41;;;11.29;99.19
38912;BME280;28444;48.056;14.408;2022-09-27T07:50:53;96047.25;;;11.28;99.55
38912;BME280;28444;48.056;14.408;2022-09-27T07:53:20;96048.19;;;11.33;99.66
38912;BME280;28444;48.056;14.408;2022-09-27T07:55:50;96044.50;;;11.28;98.56
38912;BME280;28444;48.056;14.408;2022-09-27T07:58:19;96051.50;;;11.31;98.58
38912;BME280;28444;48.056;14.408;2022-09-27T08:00:46;96054.38;;;11.33;99.02
38912;BME280;28444;48.056;14.408;2022-09-27T08:03:14;96047.78;;;11.39;98.23
38912;BME280;28444;48.056;14.408;2022-09-27T08:05:45;96054.91;;;11.44;98.14
38912;BME280;28444;48.056;14.408;2022-09-27T08:08:14;96055.72;;;11.46;97.94
38912;BME280;28444;48.056;14.408;2022-09-27T08:10:41;96066.09;;;11.62;98.01
38912;BME280;28444;48.056;14.408;2022-09-27T08:13:10;96070.69;;;11.71;97.81
38912;BME280;28444;48.056;14.408;2022-09-27T08:15:37;96065.81;;;11.69;97.07
38912;BME280;28444;48.056;14.408;2022-09-27T08:18:06;96067.81;;;11.69;97.98
38912;BME280;28444;48.056;14.408;2022-09-27T08:20:35;96065.91;;;11.71;97.37
38912;BME280;28444;48.056;14.408;2022-09-27T08:23:01;96070.88;;;11.75;98.30
38912;BME280;28444;48.056;14.408;2022-09-27T08:25:29;96071.50;;;11.73;97.28
38912;BME280;28444;48.056;14.408;2022-09-27T08:27:58;96064.81;;;11.76;96.12
38912;BME280;28444;48.056;14.408;2022-09-27T08:30:25;96063.94;;;11.86;97.01
38912;BME280;28444;48.056;14.408;2022-09-27T08:32:56;96061.09;;;11.97;96.40
38912;BME280;28444;48.056;14.408;2022-09-27T08:35:24;96065.97;;;12.13;96.71
38912;BME280;28444;48.056;14.408;2022-09-27T08:37:55;96072.47;;;12.19;95.57
38912;BME280;28444;48.056;14.408;2022-09-27T08:40:26;96069.53;;;12.29;94.26
38912;BME280;28444;48.056;14.408;2022-09-27T08:44:08;96082.63;;;12.44;93.69
38912;BME280;28444;48.056;14.408;2022-09-27T08:49:44;96089.44;;;12.57;91.87
38912;BME280;28444;48.056;14.408;2022-09-27T08:52:22;96088.63;;;12.55;91.57
38912;BME280;28444;48.056;14.408;2022-09-27T08:54:54;96087.91;;;12.54;91.27
38912;BME280;28444;48.056;14.408;2022-09-27T08:57:24;96090.22;;;12.73;89.65
38912;BME280;28444;48.056;14.408;2022-09-27T09:00:05;96085.03;;;12.66;90.84
38912;BME280;28444;48.056;14.408;2022-09-27T09:02:34;96087.28;;;12.56;89.81
38912;BME280;28444;48.056;14.408;2022-09-27T09:05:11;96091.34;;;12.68;89.38
38912;BME280;28444;48.056;14.408;2022-09-27T09:07:50;96090.72;;;12.70;88.88
38912;BME280;28444;48.056;14.408;2022-09-27T09:11:24;96087.28;;;12.56;88.05
38912;BME280;28444;48.056;14.408;2022-09-27T09:14:18;96087.19;;;12.53;88.42
38912;BME280;28444;48.056;14.408;2022-09-27T09:17:19;96096.44;;;12.60;90.40
38912;BME280;28444;48.056;14.408;2022-09-27T09:28:55;96089.50;;;12.87;86.10
38912;BME280;28444;48.056;14.408;2022-09-27T09:31:41;96095.06;;;12.89;85.21
38912;BME280;28444;48.056;14.408;2022-09-27T09:34:24;96096.09;;;12.82;81.80
38912;BME280;28444;48.056;14.408;2022-09-27T09:37:03;96083.63;;;12.79;84.14
38912;BME280;28444;48.056;14.408;2022-09-27T09:39:45;96083.50;;;12.76;85.19
38912;BME280;28444;48.056;14.408;2022-09-27T09:48:17;96095.31;;;12.65;81.54
38912;BME280;28444;48.056;14.408;2022-09-27T09:50:48;96099.56;;;12.68;82.01
38912;BME280;28444;48.056;14.408;2022-09-27T09:54:34;96101.28;;;12.75;80.56
38912;BME280;28444;48.056;14.408;2022-09-27T09:56:29;96095.69;;;12.87;82.00
38912;BME280;28444;48.056;14.408;2022-09-27T09:59:00;96087.13;;;12.95;81.51
38912;BME280;28444;48.056;14.408;2022-09-27T10:01:38;96090.16;;;13.01;81.97
38912;BME280;28444;48.056;14.408;2022-09-27T10:04:06;96084.16;;;13.05;81.63
38912;BME280;28444;48.056;14.408;2022-09-27T10:06:32;96085.53;;;12.90;79.01
38912;BME280;28444;48.056;14.408;2022-09-27T10:08:59;96079.84;;;12.86;79.42
38912;BME280;28444;48.056;14.408;2022-09-27T10:11:34;96092.63;;;12.95;80.17
38912;BME280;28444;48.056;14.408;2022-09-27T10:14:02;96077.97;;;13.04;79.22
38912;BME280;28444;48.056;14.408;2022-09-27T10:16:29;96087.28;;;13.13;77.57
38912;BME280;28444;48.056;14.408;2022-09-27T10:18:59;96079.69;;;13.11;78.00
38912;BME280;28444;48.056;14.408;2022-09-27T10:21:29;96075.06;;;13.16;79.26
38912;BME280;28444;48.056;14.408;2022-09-27T10:24:22;96078.13;;;13.22;80.26
38912;BME280;28444;48.056;14.408;2022-09-27T10:26:57;96070.47;;;13.34;77.88
38912;BME280;28444;48.056;14.408;2022-09-27T10:29:30;96073.66;;;13.44;78.05
38912;BME280;28444;48.056;14.408;2022-09-27T10:32:04;96073.88;;;13.64;76.65
38912;BME280;28444;48.056;14.408;2022-09-27T10:34:44;96075.47;;;13.69;75.03
38912;BME280;28444;48.056;14.408;2022-09-27T10:37:16;96080.22;;;13.53;73.95
38912;BME280;28444;48.056;14.408;2022-09-27T10:39:45;96075.25;;;13.49;74.65
38912;BME280;28444;48.056;14.408;2022-09-27T10:42:36;96084.66;;;13.44;75.01
38912;BME280;28444;48.056;14.408;2022-09-27T10:48:00;96086.34;;;13.22;74.06
38912;BME280;28444;48.056;14.408;2022-09-27T10:50:30;96094.19;;;13.14;74.43
38912;BME280;28444;48.056;14.408;2022-09-27T10:53:18;96093.47;;;13.13;75.66
38912;BME280;28444;48.056;14.408;2022-09-27T10:55:47;96097.81;;;13.32;75.35
38912;BME280;28444;48.056;14.408;2022-09-27T11:01:07;96093.59;;;13.45;72.84
38912;BME280;28444;48.056;14.408;2022-09-27T11:03:46;96087.94;;;13.41;74.47
38912;BME280;28444;48.056;14.408;2022-09-27T11:06:44;96093.44;;;13.57;74.86
38912;BME280;28444;48.056;14.408;2022-09-27T11:09:28;96090.63;;;13.55;74.19
38912;BME280;28444;48.056;14.408;2022-09-27T11:12:07;96084.94;;;13.66;73.61
38912;BME280;28444;48.056;14.408;2022-09-27T11:14:35;96091.78;;;13.65;72.54
38912;BME280;28444;48.056;14.408;2022-09-27T11:17:44;96095.13;;;13.48;74.41
38912;BME280;28444;48.056;14.408;2022-09-27T11:20:28;96105.00;;;13.39;75.64
38912;BME280;28444;48.056;14.408;2022-09-27T11:32:59;96129.53;;;11.58;89.42
38912;BME280;28444;48.056;14.408;2022-09-27T11:35:56;96144.00;;;11.72;90.60
38912;BME280;28444;48.056;14.408;2022-09-27T11:44:48;96111.66;;;12.22;89.73
38912;BME280;28444;48.056;14.408;2022-09-27T11:47:33;96109.94;;;12.28;88.62
38912;BME280;28444;48.056;14.408;2022-09-27T11:50:49;96120.00;;;12.51;89.67
38912;BME280;28444;48.056;14.408;2022-09-27T11:56:43;96134.09;;;12.73;87.72
38912;BME280;28444;48.056;14.408;2022-09-27T12:02:46;96134.72;;;12.72;82.90
38912;BME280;28444;48.056;14.408;2022-09-27T12:09:05;96128.50;;;12.30;83.62
38912;BME280;28444;48.056;14.408;2022-09-27T12:11:48;96129.22;;;12.31;81.61
38912;BME280;28444;48.056;14.408;2022-09-27T12:14:38;96122.63;;;12.36;81.63
38912;BME280;28444;48.056;14.408;2022-09-27T12:17:13;96118.19;;;12.42;81.16
38912;BME280;28444;48.056;14.408;2022-09-27T12:19:45;96122.03;;;12.51;81.69
38912;BME280;28444;48.056;14.408;2022-09-27T12:22:20;96136.03;;;12.71;83.40
38912;BME280;28444;48.056;14.408;2022-09-27T12:25:16;96130.44;;;12.83;78.31
38912;BME280;28444;48.056;14.408;2022-09-27T12:27:54;96134.78;;;12.88;79.36
38912;BME280;28444;48.056;14.408;2022-09-27T12:30:23;96141.41;;;12.69;77.04
38912;BME280;28444;48.056;14.408;2022-09-27T12:35:52;96126.81;;;12.64;76.01
38912;BME280;28444;48.056;14.408;2022-09-27T12:38:33;96128.09;;;12.63;74.96
38912;BME280;28444;48.056;14.408;2022-09-27T12:41:04;96132.28;;;12.64;75.62
38912;BME280;28444;48.056;14.408;2022-09-27T12:43:31;96124.97;;;12.55;74.62
38912;BME280;28444;48.056;14.408;2022-09-27T12:52:02;96130.06;;;12.61;75.13
38912;BME280;28444;48.056;14.408;2022-09-27T12:54:54;96133.31;;;12.57;72.31
38912;BME280;28444;48.056;14.408;2022-09-27T13:03:49;96127.69;;;12.83;71.21
38912;BME280;28444;48.056;14.408;2022-09-27T13:06:53;96134.72;;;12.86;72.92
38912;BME280;28444;48.056;14.408;2022-09-27T13:12:27;96126.25;;;12.82;70.88
38912;BME280;28444;48.056;14.408;2022-09-27T13:15:12;96128.09;;;12.77;70.81
38912;BME280;28444;48.056;14.408;2022-09-27T13:17:53;96129.22;;;12.86;70.84
38912;BME280;28444;48.056;14.408;2022-09-27T13:20:50;96127.56;;;12.94;70.83
38912;BME280;28444;48.056;14.408;2022-09-27T13:23:51;96113.16;;;12.80;68.87
38912;BME280;28444;48.056;14.408;2022-09-27T13:26:53;96136.53;;;12.81;70.29
38912;BME280;28444;48.056;14.408;2022-09-27T13:29:34;96147.09;;;12.87;71.73
38912;BME280;28444;48.056;14.408;2022-09-27T13:32:19;96132.34;;;12.94;70.87
38912;BME280;28444;48.056;14.408;2022-09-27T13:35:21;96127.97;;;13.02;71.08
38912;BME280;28444;48.056;14.408;2022-09-27T13:37:54;96128.97;;;12.95;70.19
38912;BME280;28444;48.056;14.408;2022-09-27T13:40:29;96136.69;;;12.99;72.29
38912;BME280;28444;48.056;14.408;2022-09-27T13:45:55;96140.47;;;12.78;70.94
38912;BME280;28444;48.056;14.408;2022-09-27T13:48:52;96126.06;;;12.77;69.20
38912;BME280;28444;48.056;14.408;2022-09-27T13:51:54;96130.97;;;12.65;68.18
38912;BME280;28444;48.056;14.408;2022-09-27T13:54:53;96132.28;;;12.64;70.00
38912;BME280;28444;48.056;14.408;2022-09-27T13:57:54;96142.13;;;12.69;70.64
38912;BME280;28444;48.056;14.408;2022-09-27T14:00:27;96141.94;;;12.65;70.06
38912;BME280;28444;48.056;14.408;2022-09-27T14:06:17;96143.66;;;12.45;70.84
38912;BME280;28444;48.056;14.408;2022-09-27T14:08:51;96162.03;;;12.28;70.86
38912;BME280;28444;48.056;14.408;2022-09-27T14:11:31;96154.09;;;12.21;69.09
38912;BME280;28444;48.056;14.408;2022-09-27T14:13:59;96152.44;;;12.16;70.38
38912;BME280;28444;48.056;14.408;2022-09-27T14:16:32;96165.66;;;12.19;70.51
38912;BME280;28444;48.056;14.408;2022-09-27T14:19:00;96155.91;;;12.16;69.14
38912;BME280;28444;48.056;14.408;2022-09-27T14:21:35;96157.00;;;12.11;71.14
38912;BME280;28444;48.056;14.408;2022-09-27T14:27:37;96158.34;;;12.10;71.37
38912;BME280;28444;48.056;14.408;2022-09-27T14:30:13;96159.38;;;12.17;70.75
38912;BME280;28444;48.056;14.408;2022-09-27T14:32:51;96166.75;;;12.14;70.04
38912;BME280;28444;48.056;14.408;2022-09-27T14:35:25;96165.22;;;12.11;69.37
38912;BME280;28444;48.056;14.408;2022-09-27T14:38:14;96167.34;;;12.13;70.85
38912;BME280;28444;48.056;14.408;2022-09-27T14:41:04;96162.91;;;12.19;72.84
38912;BME280;28444;48.056;14.408;2022-09-27T14:43:33;96150.41;;;12.16;68.63
38912;BME280;28444;48.056;14.408;2022-09-27T14:46:05;96157.72;;;12.12;70.98
38912;BME280;28444;48.056;14.408;2022-09-27T14:48:37;96158.75;;;12.18;70.29
38912;BME280;28444;48.056;14.408;2022-09-27T14:51:19;96154.59;;;12.17;69.49
38912;BME280;28444;48.056;14.408;2022-09-27T14:53:51;96159.78;;;12.25;70.21
38912;BME280;28444;48.056;14.408;2022-09-27T14:56:32;96168.19;;;12.15;69.63